KUNV/SCE METAR and TAF weather

Enter ICAO airport designator
Station Type Date Time Source
KUNV METAR 2021/01/22 06:35 UTC NOAA

KUNV 220635Z AUTO 26022G27KT 10SM CLR 03/M07 A2961 RMK AO2 T00261068


Station Type Date Time Source
KUNV Decoded METAR 2021/01/22 06:35 UTC NOAA

State College, University Park Airport, PA, United States (KUNV) 40-51N 077-51W
Jan 22, 2021 - 01:35 AM EST / 2021.01.22 0635 UTC
Wind: from the W (260 degrees) at 25 MPH (22 KT) gusting to 31 MPH (27 KT):0
Visibility: 10 mile(s):0
Sky conditions: clear
Temperature: 36.7 F (2.6 C)
Dew Point: 19.8 F (-6.8 C)
Relative Humidity: 49%
Pressure (altimeter): 29.61 in. Hg (1002 hPa)
ob: KUNV 220635Z AUTO 26022G27KT 10SM CLR 03/M07 A2961 RMK AO2 T00261068
cycle: 6

Station Type Date Time Source
KUNV TAF 2021/01/22 06:27 UTC NOAA

TAF KUNV 220525Z 2206/2306 26018G23KT P6SM OVC070
FM221500 28015G23KT P6SM OVC050

Example: see airport list